Vernon, TX

6:45 PM CST on February 07, 2016 (GMT -0600)
Vernon

Weather History for KF05 - March, 2014

Change the Weather History Date:

Saturday, March 22, 2014

  Actual Average (KLTS) Record (KLTS)
Temperature  
Mean Temperature 53 °F -  
Max Temperature 57 °F 64 °F 87 °F (2011)
Min Temperature 49 °F 41 °F 21 °F (2002)
Degree Days  
Heating Degree Days 12    
Growing Degree Days 3 (Base 50)    
Moisture  
Dew Point 29 °F    
Average Humidity 39    
Maximum Humidity 50    
Minimum Humidity 27    
Precipitation  
Precipitation 0.00 in - - ()
Sea Level Pressure  
Sea Level Pressure 30.10 in    
Wind  
Wind Speed 13 mph (NNE)    
Max Wind Speed 18 mph    
Max Gust Speed 24 mph    
Visibility 10 miles    
Events      
Averages and records for this station are not official NWS values.
T = Trace of Precipitation, MM = Missing Value Source: NWS Daily Summary

Daily Weather History Graph

Daily Weather History Graph

Search for Another Location

Airport or City:

Trip Planner

Search our weather history database for the weather conditions in past years. The results will help you decide how hot, cold, wet, or windy it might be!

Date:

Astronomy

Mar. 22, 2014 Rise Set
Actual Time 7:37 AM CDT 7:50 PM CDT
Civil Twilight 7:12 AM CDT 8:15 PM CDT
Nautical Twilight 6:43 AM CDT 8:44 PM CDT
Astronomical Twilight 6:14 AM CDT 9:14 PM CDT
Moon 12:58 AM CDT (3/22) 11:35 AM CDT (3/22)
Length of Visible Light 13h 02m
Length of Day
12h 12m
Waning Gibbous, 65% of the Moon is Illuminated
Mar 22
Waning Gibbous
Mar 23
Last Quarter
Mar 30
New
Apr 7
First Quarter
Apr 15
Full

Hourly Weather History & Observations

Time (CDT) Temp. Dew Point Humidity Pressure Visibility Wind Dir Wind Speed Gust Speed Precip Events Conditions
12:15 AM 57.6 °F 31.1 °F 37% 29.99 in 10.0 mi NNE 12.7 mph - N/A   Clear
12:35 AM 56.8 °F 31.1 °F 38% 30.00 in 10.0 mi NNE 11.5 mph - N/A   Clear
12:55 AM 56.5 °F 31.1 °F 38% 30.00 in 10.0 mi NNE 10.4 mph - N/A   Clear
1:15 AM 55.8 °F 30.7 °F 39% 30.00 in 10.0 mi NE 9.2 mph - N/A   Clear
1:35 AM 54.7 °F 30.9 °F 40% 29.99 in 10.0 mi NE 8.1 mph - N/A   Clear
1:55 AM 54.0 °F 30.7 °F 41% 29.99 in 10.0 mi ENE 9.2 mph - N/A   Clear
2:15 AM 55.4 °F 28.4 °F 36% 29.99 in 10.0 mi NE 16.1 mph - N/A   Clear
2:35 AM 56.8 °F 26.8 °F 32% 30.00 in 10.0 mi NE 13.8 mph - N/A   Clear
2:55 AM 56.7 °F 26.6 °F 32% 30.00 in 10.0 mi NE 13.8 mph - N/A   Scattered Clouds
3:15 AM 56.7 °F 26.6 °F 32% 30.01 in 10.0 mi NE 12.7 mph - N/A   Mostly Cloudy
3:35 AM 56.7 °F 26.1 °F 31% 30.01 in 10.0 mi NNE 12.7 mph 19.6 mph N/A   Mostly Cloudy
3:55 AM 56.5 °F 25.7 °F 31% 30.01 in 10.0 mi NE 16.1 mph - N/A   Overcast
4:15 AM 56.8 °F 25.3 °F 30% 30.02 in 10.0 mi NE 17.3 mph 23.0 mph N/A   Overcast
4:35 AM 57.6 °F 24.8 °F 28% 30.03 in 10.0 mi NE 18.4 mph 23.0 mph N/A   Overcast
4:55 AM 57.7 °F 24.4 °F 28% 30.03 in 10.0 mi NNE 18.4 mph 23.0 mph N/A   Overcast
5:15 AM 57.6 °F 23.9 °F 27% 30.04 in 10.0 mi NE 15.0 mph - N/A   Overcast
5:35 AM 57.2 °F 24.4 °F 28% 30.05 in 10.0 mi NNE 13.8 mph 24.2 mph N/A   Overcast
5:55 AM 55.2 °F 25.2 °F 31% 30.05 in 10.0 mi NNE 16.1 mph - N/A   Overcast
6:15 AM 53.1 °F 25.3 °F 34% 30.05 in 10.0 mi NNE 15.0 mph - N/A   Overcast
6:35 AM 51.6 °F 25.5 °F 36% 30.06 in 10.0 mi NNE 17.3 mph 23.0 mph N/A   Mostly Cloudy
6:55 AM 50.9 °F 26.1 °F 38% 30.07 in 10.0 mi NNE 16.1 mph 23.0 mph N/A   Mostly Cloudy
7:15 AM 50.4 °F 26.4 °F 39% 30.08 in 10.0 mi NNE 13.8 mph 19.6 mph N/A   Mostly Cloudy
7:35 AM 50.4 °F 27.0 °F 40% 30.11 in 10.0 mi NNE 15.0 mph 20.7 mph N/A   Overcast
7:55 AM 50.2 °F 27.3 °F 41% 30.11 in 10.0 mi NNE 15.0 mph 21.9 mph N/A   Overcast
8:15 AM 50.0 °F 28.0 °F 43% 30.12 in 10.0 mi NNE 16.1 mph - N/A   Overcast
8:35 AM 50.0 °F 28.6 °F 44% 30.13 in 10.0 mi NNE 12.7 mph 18.4 mph N/A   Overcast
8:55 AM 50.0 °F 28.8 °F 44% 30.13 in 10.0 mi NNE 15.0 mph 21.9 mph N/A   Overcast
9:15 AM 50.0 °F 29.1 °F 45% 30.14 in 10.0 mi NNE 13.8 mph - N/A   Overcast
9:35 AM 49.8 °F 29.5 °F 46% 30.15 in 10.0 mi NNE 15.0 mph 20.7 mph N/A   Overcast
9:55 AM 49.3 °F 29.8 °F 47% 30.16 in 10.0 mi NNE 16.1 mph 20.7 mph N/A   Overcast
10:15 AM 49.3 °F 30.0 °F 48% 30.17 in 10.0 mi NNE 12.7 mph - N/A   Overcast
10:35 AM 49.6 °F 30.6 °F 48% 30.18 in 10.0 mi NNE 12.7 mph - N/A   Overcast
10:55 AM 49.3 °F 30.7 °F 49% 30.18 in 10.0 mi North 17.3 mph - N/A   Overcast
11:15 AM 49.3 °F 31.3 °F 50% 30.18 in 10.0 mi NNE 15.0 mph 20.7 mph N/A   Overcast
11:35 AM 49.8 °F 31.6 °F 50% 30.17 in 10.0 mi NNE 13.8 mph 23.0 mph N/A   Overcast
11:55 AM 50.0 °F 31.8 °F 50% 30.17 in 10.0 mi NNE 13.8 mph - N/A   Overcast
12:15 PM 50.2 °F 31.8 °F 49% 30.16 in 10.0 mi NNE 17.3 mph 21.9 mph N/A   Overcast
12:55 PM 50.4 °F 31.6 °F 49% 30.15 in 10.0 mi NNE 16.1 mph 21.9 mph N/A   Overcast
1:15 PM 51.3 °F 31.8 °F 47% 30.14 in 10.0 mi NNE 12.7 mph 20.7 mph N/A   Overcast
1:35 PM 52.0 °F 31.8 °F 46% 30.14 in 10.0 mi NNE 12.7 mph 18.4 mph N/A   Overcast
1:55 PM 52.3 °F 32.0 °F 46% 30.13 in 10.0 mi NNE 10.4 mph - N/A   Overcast
2:15 PM 52.7 °F 31.8 °F 45% 30.13 in 10.0 mi North 10.4 mph 18.4 mph N/A   Overcast
2:35 PM 53.1 °F 31.8 °F 44% 30.12 in 10.0 mi NNE 8.1 mph 19.6 mph N/A   Overcast
2:55 PM 53.2 °F 31.8 °F 44% 30.11 in 10.0 mi NNE 11.5 mph 16.1 mph N/A   Overcast
3:15 PM 53.6 °F 32.0 °F 44% 30.11 in 10.0 mi NNE 11.5 mph 18.4 mph N/A   Overcast
3:35 PM 53.8 °F 31.8 °F 43% 30.10 in 10.0 mi North 13.8 mph - N/A   Overcast
3:55 PM 54.3 °F 31.6 °F 42% 30.09 in 10.0 mi NNE 9.2 mph - N/A   Overcast
4:15 PM 54.9 °F 31.5 °F 41% 30.09 in 10.0 mi North 9.2 mph - N/A   Overcast
4:35 PM 55.6 °F 31.6 °F 40% 30.08 in 10.0 mi North 9.2 mph 12.7 mph N/A   Overcast
4:55 PM 55.6 °F 31.3 °F 40% 30.08 in 10.0 mi NNE 9.2 mph 17.3 mph N/A   Overcast
5:15 PM 55.9 °F 30.7 °F 38% 30.08 in 10.0 mi NE 10.4 mph - N/A   Overcast
5:35 PM 56.3 °F 30.4 °F 37% 30.07 in 10.0 mi NE 12.7 mph - N/A   Overcast
5:55 PM 56.3 °F 30.0 °F 37% 30.07 in 10.0 mi NNE 11.5 mph - N/A   Overcast
6:15 PM 55.9 °F 29.5 °F 36% 30.07 in 10.0 mi NE 9.2 mph 17.3 mph N/A   Overcast
6:35 PM 55.8 °F 28.8 °F 36% 30.08 in 10.0 mi ENE 12.7 mph - N/A   Overcast
6:55 PM 55.4 °F 28.8 °F 36% 30.09 in 10.0 mi ENE 11.5 mph - N/A   Overcast
7:15 PM 55.2 °F 28.4 °F 36% 30.09 in 10.0 mi ENE 11.5 mph - N/A   Overcast
7:35 PM 54.7 °F 28.8 °F 37% 30.10 in 10.0 mi ENE 12.7 mph - N/A   Overcast
7:55 PM - - N/A% 30.11 in 10.0 mi ENE 10.4 mph - N/A   Unknown
8:15 PM 54.1 °F 28.0 °F 37% 30.11 in 10.0 mi ENE 8.1 mph - N/A   Overcast
8:35 PM 54.0 °F 27.7 °F 36% 30.13 in 10.0 mi NE 8.1 mph - N/A   Overcast
8:55 PM 53.8 °F 27.3 °F 36% 30.14 in 10.0 mi NE 8.1 mph - N/A   Overcast
9:15 PM 53.4 °F 27.3 °F 37% 30.16 in 10.0 mi NE 6.9 mph - N/A   Overcast
9:35 PM 53.6 °F 26.8 °F 36% 30.17 in 10.0 mi NE 8.1 mph - N/A   Overcast
9:55 PM 53.6 °F 26.1 °F 35% 30.18 in 10.0 mi NE 8.1 mph - N/A   Overcast
10:15 PM 53.2 °F 25.9 °F 35% 30.19 in 10.0 mi NE 6.9 mph - N/A   Overcast
10:35 PM 52.9 °F 26.1 °F 35% 30.20 in 10.0 mi NNE 4.6 mph - N/A   Overcast
10:55 PM 52.2 °F 27.9 °F 39% 30.22 in 10.0 mi North 5.8 mph - N/A   Overcast
11:15 PM 51.4 °F 28.9 °F 42% 30.22 in 10.0 mi North 8.1 mph - N/A   Overcast
11:35 PM 51.6 °F 28.2 °F 41% 30.22 in 10.0 mi NNE 9.2 mph - N/A   Overcast
11:55 PM 52.2 °F 26.2 °F 37% 30.23 in 10.0 mi NNE 10.4 mph - N/A   Overcast